Time;durP1;ratioP1;P1;durP2;ratioP2;P2;SDS_P1;SDS_P2;PMS_P1;PMS_P2;Temp;Humidity;BMP_temperature;BMP_pressure;BME280_temperature;BME280_humidity;BME280_pressure;Samples;Min_cycle;Max_cycle;Signal;HPM_P1;HPM_P2
2022/07/21 00:02:17;;;;;;;8.90;6.50;;;;;;;23.46;49.95;100936.58;107995;1276;70685;-85
2022/07/21 00:04:44;;;;;;;7.70;6.40;;;;;;;23.45;50.12;100915.71;107777;1277;72911;-85
2022/07/21 00:07:11;;;;;;;8.40;6.20;;;;;;;23.44;50.28;100908.40;107638;1277;60915;-86
2022/07/21 00:09:38;;;;;;;10.30;6.20;;;;;;;23.44;50.43;100893.98;108172;1277;60232;-85
2022/07/21 00:12:05;;;;;;;9.00;6.00;;;;;;;23.45;50.49;100893.17;108103;1276;75628;-86
2022/07/21 00:14:32;;;;;;;10.80;6.60;;;;;;;23.46;50.56;100893.35;108007;1276;70718;-86
2022/07/21 00:17:00;;;;;;;9.80;6.40;;;;;;;23.46;50.73;100882.09;107668;1277;74206;-85
2022/07/21 00:19:27;;;;;;;8.00;6.30;;;;;;;23.49;50.85;100872.04;107803;1277;60411;-85
2022/07/21 00:21:53;;;;;;;9.10;6.50;;;;;;;23.50;50.86;100867.13;108034;1276;60983;-85
2022/07/21 00:24:20;;;;;;;9.20;6.30;;;;;;;23.53;50.90;100858.16;108009;1276;75816;-85
2022/07/21 00:26:47;;;;;;;10.20;6.40;;;;;;;23.55;50.73;100863.93;107788;1277;71479;-85
2022/07/21 00:29:15;;;;;;;8.20;5.90;;;;;;;23.55;50.93;100862.19;107929;1276;74347;-85
2022/07/21 00:31:42;;;;;;;8.90;6.20;;;;;;;23.50;51.99;100856.29;107735;1276;61338;-85
2022/07/21 00:34:09;;;;;;;12.70;6.60;;;;;;;23.45;52.51;100845.00;107733;1278;62176;-85
2022/07/21 00:36:35;;;;;;;11.50;6.20;;;;;;;23.43;52.71;100845.79;107973;1276;74100;-85
2022/07/21 00:39:02;;;;;;;10.90;6.20;;;;;;;23.39;52.98;100838.86;107985;1276;72701;-84
2022/07/21 00:41:29;;;;;;;10.40;5.90;;;;;;;23.35;53.19;100841.21;107731;1277;73051;-85
2022/07/21 00:43:56;;;;;;;8.80;6.20;;;;;;;23.32;53.51;100840.27;107792;1276;60345;-86
2022/07/21 00:46:23;;;;;;;8.00;5.40;;;;;;;23.28;53.71;100860.65;107829;1277;60599;-86
2022/07/21 00:48:50;;;;;;;9.80;5.90;;;;;;;23.27;53.93;100869.17;107968;1276;75801;-85
2022/07/21 00:51:18;;;;;;;8.90;5.30;;;;;;;23.25;54.37;100880.80;107814;1277;71476;-86
2022/07/21 00:53:45;;;;;;;9.40;5.70;;;;;;;23.23;54.55;100891.34;107656;1276;73499;-87
2022/07/21 00:56:12;;;;;;;11.10;5.80;;;;;;;23.21;54.71;100900.29;107957;1276;60850;-85
2022/07/21 00:58:40;;;;;;;9.90;5.70;;;;;;;23.18;54.92;100916.84;107969;1276;60354;-86
2022/07/21 01:01:08;;;;;;;9.60;5.70;;;;;;;23.16;54.87;100915.46;107794;1276;76191;-86
2022/07/21 01:03:34;;;;;;;7.90;5.30;;;;;;;23.13;55.24;100908.12;107989;1276;71383;-85
2022/07/21 01:06:04;;;;;;;10.00;6.30;;;;;;;23.11;55.16;100907.94;107752;1276;73118;-86
2022/07/21 01:08:31;;;;;;;8.10;5.80;;;;;;;23.11;55.23;100910.30;108008;1276;60798;-85
2022/07/21 01:10:58;;;;;;;9.60;5.60;;;;;;;23.08;55.41;100908.44;107830;1276;60458;-84
2022/07/21 01:13:25;;;;;;;8.70;5.80;;;;;;;23.06;55.37;100910.90;108178;1276;76884;-85
2022/07/21 01:15:51;;;;;;;10.10;5.40;;;;;;;23.07;55.30;100908.80;108086;1276;71376;-86
2022/07/21 01:18:18;;;;;;;12.10;6.20;;;;;;;23.05;55.59;100905.38;108177;1275;72492;-86
2022/07/21 01:20:51;;;;;;;9.60;6.00;;;;;;;23.03;55.77;100909.73;107492;1276;618322;-87
2022/07/21 01:23:18;;;;;;;8.10;5.90;;;;;;;23.04;55.73;100904.27;107815;1276;61193;-86
2022/07/21 01:25:51;;;;;;;10.10;6.50;;;;;;;23.05;55.96;100900.45;107947;1276;77077;-86
2022/07/21 01:28:18;;;;;;;8.30;5.80;;;;;;;23.06;56.30;100903.55;107835;1276;72495;-86
2022/07/21 01:30:44;;;;;;;8.90;5.40;;;;;;;23.08;56.63;100898.91;107768;1277;72983;-86
2022/07/21 01:33:12;;;;;;;10.80;6.20;;;;;;;23.08;56.66;100899.14;108010;1276;60712;-85
2022/07/21 01:35:39;;;;;;;10.50;5.90;;;;;;;23.10;56.87;100899.10;107821;1277;61831;-86
2022/07/21 01:41:28;;;;;;;9.90;5.70;;;;;;;23.12;57.29;100892.80;107816;1277;74117;-84
2022/07/21 01:43:45;;;;;;;7.30;5.10;;;;;;;23.15;58.06;100868.91;107787;1276;74174;-85
2022/07/21 01:46:13;;;;;;;5.60;5.00;;;;;;;23.18;58.37;100845.00;107937;1276;59964;-85
2022/07/21 01:48:44;;;;;;;8.00;5.00;;;;;;;23.18;58.73;100844.45;107748;1279;60849;-86
2022/07/21 01:51:11;;;;;;;7.30;5.30;;;;;;;23.17;58.92;100854.73;107943;1276;77028;-86
2022/07/21 01:53:38;;;;;;;8.10;5.10;;;;;;;23.16;58.61;100850.41;107937;1276;72322;-86
2022/07/21 01:56:06;;;;;;;8.10;5.50;;;;;;;23.14;58.63;100836.10;107646;1276;72766;-86
2022/07/21 01:58:34;;;;;;;7.50;5.00;;;;;;;23.13;58.67;100820.88;107986;1275;60471;-86
2022/07/21 02:01:02;;;;;;;7.10;4.90;;;;;;;23.11;58.88;100807.05;107917;1276;60822;-86
2022/07/21 02:03:32;;;;;;;5.10;4.40;;;;;;;23.08;59.74;100801.34;107653;1276;76250;-87
2022/07/21 02:06:07;;;;;;;6.20;4.60;;;;;;;23.06;60.19;100814.90;107767;1276;72139;-86
2022/07/21 02:08:34;;;;;;;6.30;4.20;;;;;;;23.05;60.50;100822.63;107791;1276;74343;-86
2022/07/21 02:11:04;;;;;;;6.70;3.90;;;;;;;23.04;61.14;100801.95;107817;1276;63676;-87
2022/07/21 02:13:31;;;;;;;6.10;4.10;;;;;;;23.01;61.55;100802.94;107885;1277;60459;-86
2022/07/21 02:15:58;;;;;;;7.40;4.20;;;;;;;22.99;61.82;100823.85;107799;1277;77095;-86
2022/07/21 02:18:25;;;;;;;6.20;4.20;;;;;;;22.97;62.20;100835.67;107990;1276;71521;-86
2022/07/21 02:20:53;;;;;;;6.70;4.30;;;;;;;22.96;62.50;100833.11;107491;1279;76298;-86
2022/07/21 02:23:20;;;;;;;5.00;3.80;;;;;;;22.93;63.01;100830.33;107902;1277;61681;-86
2022/07/21 02:25:48;;;;;;;7.10;3.60;;;;;;;22.87;63.93;100837.19;107890;1276;61777;-86
2022/07/21 02:28:15;;;;;;;6.30;3.80;;;;;;;22.80;64.88;100847.59;107797;1276;75829;-86
2022/07/21 02:30:47;;;;;;;7.40;4.00;;;;;;;22.72;65.37;100829.34;108086;1276;71946;-87
2022/07/21 02:33:14;;;;;;;7.50;4.20;;;;;;;22.65;66.64;100806.04;108107;1276;73783;-86
2022/07/21 02:35:42;;;;;;;6.70;4.30;;;;;;;22.55;67.69;100802.09;107984;1278;61134;-87
2022/07/21 02:38:09;;;;;;;7.40;4.80;;;;;;;22.40;68.90;100814.44;107988;1277;61309;-86
2022/07/21 02:40:36;;;;;;;9.40;5.60;;;;;;;22.18;70.19;100823.11;108134;1276;74805;-86
2022/07/21 02:43:05;;;;;;;10.20;5.30;;;;;;;22.02;70.89;100824.06;108075;1277;70824;-87
2022/07/21 02:45:33;;;;;;;8.60;5.60;;;;;;;21.87;71.54;100846.09;107994;1276;74306;-87
2022/07/21 02:48:07;;;;;;;13.10;6.40;;;;;;;21.77;72.19;100878.17;107838;1276;62189;-87
2022/07/21 02:50:35;;;;;;;9.00;6.00;;;;;;;21.69;72.46;100902.67;108155;1276;62142;-87
2022/07/21 02:53:17;;;;;;;9.50;5.50;;;;;;;21.64;72.78;100907.06;107960;1276;75177;-87
2022/07/21 02:55:45;;;;;;;9.40;5.60;;;;;;;21.57;74.37;100899.23;107821;1276;74025;-86
2022/07/21 02:58:15;;;;;;;6.70;4.90;;;;;;;21.50;75.88;100889.06;107775;1277;74860;-87
2022/07/21 03:00:52;;;;;;;6.80;4.90;;;;;;;21.46;77.02;100882.29;107841;1277;62263;-86
2022/07/21 03:03:21;;;;;;;7.70;5.20;;;;;;;21.40;78.47;100883.46;107793;1276;62406;-86
2022/07/21 03:05:49;;;;;;;6.70;4.90;;;;;;;21.36;79.01;100874.09;107873;1276;75786;-87
2022/07/21 03:08:16;;;;;;;10.20;5.30;;;;;;;21.31;79.55;100862.29;107601;1278;72986;-86
2022/07/21 03:10:43;;;;;;;8.70;5.30;;;;;;;21.24;81.13;100851.85;107790;1276;72946;-86
2022/07/21 03:13:11;;;;;;;6.60;5.20;;;;;;;21.17;81.50;100835.77;107804;1277;63296;-86
2022/07/21 03:15:38;;;;;;;10.60;6.00;;;;;;;21.11;82.42;100829.73;107749;1275;60938;-86
2022/07/21 03:18:06;;;;;;;10.10;6.60;;;;;;;21.05;83.22;100834.68;107757;1277;77478;-85
2022/07/21 03:20:36;;;;;;;7.70;5.90;;;;;;;21.00;83.32;100831.83;107794;1277;71667;-86
2022/07/21 03:23:03;;;;;;;11.10;6.50;;;;;;;20.95;83.69;100836.59;107906;1276;73282;-87
2022/07/21 03:25:30;;;;;;;8.60;6.20;;;;;;;20.93;85.02;100842.27;107629;1277;62321;-86
2022/07/21 03:27:57;;;;;;;8.20;5.80;;;;;;;20.90;85.98;100830.67;107920;1276;60651;-86
2022/07/21 03:30:24;;;;;;;8.40;5.90;;;;;;;20.91;85.03;100816.77;107710;1276;75889;-86
2022/07/21 03:32:51;;;;;;;9.20;6.40;;;;;;;20.93;84.74;100831.36;107671;1276;73102;-86
2022/07/21 03:35:19;;;;;;;12.10;6.90;;;;;;;20.95;84.72;100837.95;107955;1276;74251;-86
2022/07/21 03:37:51;;;;;;;9.40;6.60;;;;;;;20.98;85.19;100841.52;107980;1276;63417;-86
2022/07/21 03:40:22;;;;;;;10.50;6.70;;;;;;;21.00;84.24;100855.07;107992;1276;61336;-86
2022/07/21 03:42:50;;;;;;;9.10;6.70;;;;;;;21.03;83.73;100848.49;107621;1279;76186;-86
2022/07/21 03:45:18;;;;;;;12.80;7.20;;;;;;;21.07;83.51;100835.31;107752;1279;72289;-86
2022/07/21 03:47:45;;;;;;;9.50;7.20;;;;;;;21.09;83.29;100831.85;107785;1276;72962;-86
2022/07/21 03:50:12;;;;;;;11.70;7.20;;;;;;;21.11;83.05;100816.56;107748;1276;62135;-86
2022/07/21 03:52:39;;;;;;;10.00;6.90;;;;;;;21.13;83.09;100806.55;107780;1279;60644;-86
2022/07/21 03:55:07;;;;;;;10.30;7.30;;;;;;;21.14;83.18;100791.35;107887;1276;76729;-86
2022/07/21 03:57:45;;;;;;;10.50;7.20;;;;;;;21.12;83.64;100771.04;107664;1276;72056;-86
2022/07/21 04:00:16;;;;;;;8.90;7.20;;;;;;;21.09;83.54;100773.58;107770;1277;72975;-86
2022/07/21 04:02:43;;;;;;;11.00;7.30;;;;;;;21.08;82.85;100781.13;107987;1276;63263;-86
2022/07/21 04:05:12;;;;;;;9.80;7.40;;;;;;;21.06;82.59;100795.14;107754;1278;60541;-85
2022/07/21 04:07:40;;;;;;;9.00;7.40;;;;;;;21.02;82.05;100808.52;107634;1277;76434;-85
2022/07/21 04:10:11;;;;;;;9.70;8.10;;;;;;;20.99;82.44;100831.66;107788;1276;72512;-86
2022/07/21 04:12:38;;;;;;;13.50;7.70;;;;;;;20.96;83.06;100849.95;107971;1276;72271;-85
2022/07/21 04:15:07;;;;;;;10.10;7.10;;;;;;;20.92;83.15;100851.20;107744;1276;63606;-85
2022/07/21 04:17:37;;;;;;;11.30;7.90;;;;;;;20.91;83.25;100856.47;107991;1276;60567;-86
2022/07/21 04:20:04;;;;;;;14.70;8.60;;;;;;;20.90;83.77;100866.90;107801;1275;77308;-86
2022/07/21 04:22:31;;;;;;;11.10;8.10;;;;;;;20.89;84.30;100881.90;107937;1276;71319;-86
2022/07/21 04:24:59;;;;;;;10.50;7.80;;;;;;;20.87;85.20;100897.20;107560;1277;72959;-85
2022/07/21 04:27:27;;;;;;;10.80;8.10;;;;;;;20.86;85.57;100903.50;107810;1276;61985;-86
2022/07/21 04:29:54;;;;;;;13.40;8.50;;;;;;;20.85;85.85;100902.95;107630;1276;61220;-86
2022/07/21 04:32:22;;;;;;;12.70;7.70;;;;;;;20.83;85.66;100893.15;107966;1276;75735;-85
2022/07/21 04:34:49;;;;;;;13.00;7.80;;;;;;;20.82;85.08;100895.82;107940;1276;71660;-85
2022/07/21 04:37:16;;;;;;;9.40;7.50;;;;;;;20.81;84.54;100922.91;107767;1276;71003;-85
2022/07/21 04:39:43;;;;;;;10.10;7.80;;;;;;;20.80;84.08;100943.98;107787;1276;62092;-87
2022/07/21 04:42:17;;;;;;;11.50;7.70;;;;;;;20.79;84.45;100949.67;107830;1276;60169;-86
2022/07/21 04:44:45;;;;;;;9.50;7.60;;;;;;;20.79;84.30;100954.91;107921;1276;75857;-87
2022/07/21 04:47:12;;;;;;;11.20;7.90;;;;;;;20.79;85.12;100958.83;107802;1276;72665;-85
2022/07/21 04:49:39;;;;;;;10.70;8.10;;;;;;;20.74;87.38;100951.37;107750;1277;73167;-86
2022/07/21 04:52:06;;;;;;;10.20;8.40;;;;;;;20.71;88.14;100935.96;107738;1277;62462;-86
2022/07/21 04:54:34;;;;;;;10.00;7.60;;;;;;;20.68;88.63;100938.13;107636;1276;60440;-86
2022/07/21 04:57:03;;;;;;;10.50;8.40;;;;;;;20.65;89.07;100939.56;107753;1276;76420;-84
2022/07/21 04:59:30;;;;;;;24.00;21.50;;;;;;;20.65;89.20;100945.00;107947;1276;72019;-84
2022/07/21 05:01:58;;;;;;;10.90;8.90;;;;;;;20.63;89.73;100946.36;107607;1277;73624;-84
2022/07/21 05:04:25;;;;;;;15.70;11.70;;;;;;;20.61;89.83;100944.98;107736;1278;63483;-84
2022/07/21 05:06:53;;;;;;;13.00;9.50;;;;;;;20.57;90.48;100951.34;107664;1276;60707;-84
2022/07/21 05:09:20;;;;;;;11.90;9.80;;;;;;;20.54;90.45;100954.23;107925;1276;76068;-84
2022/07/21 05:11:47;;;;;;;11.80;10.30;;;;;;;20.53;90.74;100954.69;107691;1276;72786;-85
2022/07/21 05:14:14;;;;;;;14.20;9.30;;;;;;;20.53;90.48;100945.69;107912;1276;73522;-84
2022/07/21 05:16:42;;;;;;;11.10;8.70;;;;;;;20.53;90.45;100942.88;107768;1276;62106;-87
2022/07/21 05:19:09;;;;;;;11.90;9.20;;;;;;;20.53;90.58;100942.20;107909;1279;61795;-87
2022/07/21 05:21:36;;;;;;;11.60;9.50;;;;;;;20.54;90.35;100946.20;107740;1276;75716;-87
2022/07/21 05:24:03;;;;;;;13.00;9.40;;;;;;;20.58;90.60;100946.56;107655;1276;71573;-86
2022/07/21 05:26:30;;;;;;;10.80;8.80;;;;;;;20.61;90.76;100946.80;107586;1279;73211;-87
2022/07/21 05:28:57;;;;;;;13.10;9.40;;;;;;;20.63;90.68;100939.93;107602;1279;61655;-87
2022/07/21 05:31:25;;;;;;;11.70;8.80;;;;;;;20.68;90.05;100933.70;107725;1276;60720;-87
2022/07/21 05:33:52;;;;;;;11.90;8.90;;;;;;;20.72;89.86;100935.98;107675;1276;75539;-87
2022/07/21 05:36:19;;;;;;;9.50;7.90;;;;;;;20.80;89.21;100941.83;107724;1277;71428;-87
2022/07/21 05:38:47;;;;;;;11.10;8.00;;;;;;;20.88;88.55;100943.13;107864;1276;73050;-87
2022/07/21 05:41:14;;;;;;;9.50;8.20;;;;;;;20.95;88.17;100942.42;107674;1277;62182;-87
2022/07/21 05:43:41;;;;;;;9.80;8.60;;;;;;;21.04;87.59;100943.88;107750;1276;61673;-87
2022/07/21 05:46:09;;;;;;;11.80;8.20;;;;;;;21.13;87.01;100943.53;107754;1277;76427;-87
2022/07/21 05:48:36;;;;;;;9.70;7.90;;;;;;;21.22;86.47;100942.09;107783;1277;71967;-86
2022/07/21 05:51:06;;;;;;;10.10;7.90;;;;;;;21.28;85.84;100943.45;107465;1276;73590;-87
2022/07/21 05:53:38;;;;;;;12.70;7.90;;;;;;;21.34;85.37;100951.06;107733;1276;63059;-87
2022/07/21 05:56:06;;;;;;;9.10;7.20;;;;;;;21.39;84.74;100954.80;107719;1276;59900;-88
2022/07/21 05:58:36;;;;;;;9.20;7.20;;;;;;;21.43;84.54;100955.48;107839;1276;74713;-88
2022/07/21 06:01:12;;;;;;;9.40;7.40;;;;;;;21.44;83.91;100960.84;107506;1277;73523;-86
2022/07/21 06:03:47;;;;;;;11.20;8.00;;;;;;;21.45;84.07;100961.51;107698;1276;72967;-87
2022/07/21 06:06:16;;;;;;;11.50;7.60;;;;;;;21.47;83.84;100964.95;107642;1277;62978;-88
2022/07/21 06:08:45;;;;;;;8.80;7.00;;;;;;;21.48;83.25;100971.13;107803;1276;61191;-88
2022/07/21 06:11:14;;;;;;;11.00;7.00;;;;;;;21.50;82.86;100982.13;107628;1279;74239;-87
2022/07/21 06:13:41;;;;;;;9.50;6.70;;;;;;;21.51;82.20;100986.52;108003;1279;71864;-88
2022/07/21 06:16:09;;;;;;;8.70;6.20;;;;;;;21.52;81.42;100991.30;107956;1278;74665;-86
2022/07/21 06:18:36;;;;;;;8.90;5.90;;;;;;;21.53;80.83;100991.52;107968;1277;62492;-86
2022/07/21 06:21:06;;;;;;;10.70;6.60;;;;;;;21.54;80.59;100997.65;107866;1279;60988;-86
2022/07/21 06:23:33;;;;;;;8.30;6.10;;;;;;;21.64;80.13;100995.88;107794;1276;75706;-87
2022/07/21 06:26:00;;;;;;;16.40;14.80;;;;;;;21.70;78.88;100995.73;108014;1276;73102;-87
2022/07/21 06:28:29;;;;;;;117.70;105.30;;;;;;;21.80;78.34;100996.92;107979;1278;72965;-89
2022/07/21 06:30:56;;;;;;;16.00;13.20;;;;;;;21.89;77.09;101000.63;108014;1279;63049;-89
2022/07/21 06:33:24;;;;;;;12.20;9.60;;;;;;;22.00;76.64;101005.13;107909;1278;60814;-89
2022/07/21 06:35:51;;;;;;;8.00;5.90;;;;;;;22.11;76.09;101004.61;108011;1276;76239;-88
2022/07/21 06:38:17;;;;;;;8.50;6.60;;;;;;;22.23;75.75;101009.41;108025;1278;74268;-88
2022/07/21 06:40:44;;;;;;;7.70;4.80;;;;;;;22.35;75.37;101010.77;108044;1278;72680;-89
2022/07/21 06:43:12;;;;;;;8.10;5.00;;;;;;;22.38;74.26;101010.17;107801;1276;63888;-88
2022/07/21 06:45:55;;;;;;;5.50;4.10;;;;;;;22.44;74.29;101012.79;108194;1276;60401;-89
2022/07/21 06:48:23;;;;;;;13.50;9.90;;;;;;;22.46;74.66;101015.85;107964;1276;75754;-87
2022/07/21 06:50:50;;;;;;;6.00;4.60;;;;;;;22.42;74.33;101014.77;108043;1276;71499;-89
2022/07/21 06:53:17;;;;;;;7.10;5.00;;;;;;;22.37;74.44;101018.27;108189;1276;71674;-87
2022/07/21 06:55:43;;;;;;;32.70;29.20;;;;;;;22.35;75.04;101016.55;108046;1278;62232;-86
2022/07/21 06:58:19;;;;;;;5.50;3.80;;;;;;;22.34;75.06;101018.47;107903;1276;62087;-85
2022/07/21 07:00:46;;;;;;;7.30;4.10;;;;;;;22.31;75.10;101018.87;107823;1277;76134;-85
2022/07/21 07:03:14;;;;;;;4.80;3.40;;;;;;;22.31;75.43;101015.02;107910;1276;72419;-86
2022/07/21 07:05:43;;;;;;;6.80;3.70;;;;;;;22.33;75.93;101019.23;108121;1277;72968;-85
2022/07/21 07:08:10;;;;;;;5.90;3.50;;;;;;;22.34;76.04;101021.13;107977;1276;61313;-85
2022/07/21 07:10:39;;;;;;;4.70;3.40;;;;;;;22.33;76.11;101017.27;107832;1278;60924;-85
2022/07/21 07:13:06;;;;;;;3.50;3.00;;;;;;;22.33;76.11;101017.75;107961;1277;75824;-84
2022/07/21 07:15:53;;;;;;;4.60;3.30;;;;;;;22.34;75.91;101014.44;108114;1278;71723;-84
2022/07/21 07:18:22;;;;;;;4.40;3.10;;;;;;;22.38;75.70;101015.63;108215;1276;73120;-84
2022/07/21 07:20:49;;;;;;;4.80;3.00;;;;;;;22.46;75.57;101011.37;107941;1279;62118;-83
2022/07/21 07:23:16;;;;;;;5.90;2.70;;;;;;;22.57;74.93;101010.20;108177;1276;60819;-84
2022/07/21 07:25:44;;;;;;;4.60;2.90;;;;;;;22.78;74.60;101009.54;108048;1277;76065;-83
2022/07/21 07:28:12;;;;;;;3.20;2.50;;;;;;;22.97;73.78;101002.27;108132;1276;70570;-84
2022/07/21 07:30:39;;;;;;;3.40;2.50;;;;;;;23.07;72.57;101006.42;108007;1277;72891;-85
2022/07/21 07:33:06;;;;;;;3.60;2.80;;;;;;;23.16;72.12;101001.09;107974;1277;62282;-84
2022/07/21 07:35:33;;;;;;;3.80;2.70;;;;;;;23.31;71.73;101008.30;107979;1278;60295;-84
2022/07/21 07:38:01;;;;;;;4.40;2.60;;;;;;;23.46;71.70;101005.89;108146;1276;75703;-84
2022/07/21 07:40:29;;;;;;;3.70;2.60;;;;;;;23.58;70.69;101000.11;107901;1276;72520;-84
2022/07/21 07:42:56;;;;;;;2.90;2.50;;;;;;;23.69;69.72;101003.48;107930;1276;72187;-85
2022/07/21 07:45:29;;;;;;;3.00;2.20;;;;;;;23.69;68.86;101005.54;107915;1278;63272;-84
2022/07/21 07:47:56;;;;;;;3.20;2.10;;;;;;;23.67;68.26;101007.35;108028;1276;61526;-84
2022/07/21 07:50:23;;;;;;;3.00;2.50;;;;;;;23.66;68.65;101014.33;107950;1276;75423;-85
2022/07/21 07:52:50;;;;;;;3.60;2.00;;;;;;;23.68;68.67;101012.90;107874;1276;72517;-84
2022/07/21 07:55:17;;;;;;;3.50;2.20;;;;;;;23.64;68.67;101021.63;108025;1277;73842;-84
2022/07/21 07:57:44;;;;;;;3.70;2.10;;;;;;;23.56;68.62;101025.34;107950;1276;63100;-84
2022/07/21 08:00:19;;;;;;;2.60;1.90;;;;;;;23.48;68.81;101028.32;107948;1277;62269;-83
2022/07/21 08:03:06;;;;;;;2.20;1.70;;;;;;;23.40;69.00;101027.42;107934;1276;76544;-84
2022/07/21 08:05:32;;;;;;;2.90;1.80;;;;;;;23.38;69.63;101029.77;107971;1277;71504;-84
2022/07/21 08:07:59;;;;;;;3.10;1.40;;;;;;;23.37;69.42;101030.59;107854;1276;71599;-84
2022/07/21 08:10:26;;;;;;;3.00;1.40;;;;;;;23.25;68.49;101033.94;107871;1279;63503;-84
2022/07/21 08:13:15;;;;;;;2.70;1.20;;;;;;;23.19;69.14;101043.30;108023;1279;60442;-84
2022/07/21 08:15:43;;;;;;;1.40;0.90;;;;;;;23.11;68.19;101048.80;107976;1276;74898;-84
2022/07/21 08:18:10;;;;;;;2.00;0.90;;;;;;;22.99;68.01;101057.49;107969;1277;72838;-85
2022/07/21 08:20:38;;;;;;;1.70;0.80;;;;;;;22.86;68.49;101058.98;108046;1276;75125;-85
2022/07/21 08:23:05;;;;;;;1.40;0.70;;;;;;;22.73;69.60;101063.70;108057;1276;63351;-84
2022/07/21 08:25:32;;;;;;;1.80;0.70;;;;;;;22.57;71.03;101056.00;107922;1276;60527;-84
2022/07/21 08:27:59;;;;;;;1.40;0.80;;;;;;;22.40;72.92;101064.32;107817;1277;75808;-83
2022/07/21 08:30:27;;;;;;;1.30;0.70;;;;;;;22.09;75.60;101066.17;107827;1276;71365;-83
2022/07/21 08:32:58;;;;;;;3.20;0.90;;;;;;;21.77;78.41;101059.84;108022;1278;76810;-84
2022/07/21 08:35:25;;;;;;;2.70;1.00;;;;;;;21.39;81.24;101067.86;107743;1279;62002;-82
2022/07/21 08:37:59;;;;;;;3.40;1.00;;;;;;;21.14;82.38;101069.80;107923;1278;59946;-83
2022/07/21 08:40:28;;;;;;;3.00;1.50;;;;;;;20.90;84.88;101073.30;108170;1276;75569;-82
2022/07/21 08:42:56;;;;;;;2.80;1.10;;;;;;;20.72;86.28;101075.55;108051;1276;71361;-82
2022/07/21 08:45:23;;;;;;;3.10;1.50;;;;;;;20.58;87.61;101074.97;108089;1278;75364;-82
2022/07/21 08:47:55;;;;;;;2.30;1.20;;;;;;;20.54;87.96;101075.45;107919;1278;62367;-82
2022/07/21 08:50:24;;;;;;;2.70;1.20;;;;;;;20.52;88.43;101073.95;108049;1278;60380;-82
2022/07/21 08:52:51;;;;;;;3.70;1.30;;;;;;;20.57;88.23;101074.95;108022;1277;74720;-83
2022/07/21 08:55:30;;;;;;;2.60;1.50;;;;;;;20.65;88.25;101071.86;108165;1276;70249;-83
2022/07/21 08:57:57;;;;;;;3.40;1.50;;;;;;;20.75;88.29;101076.63;108178;1276;74156;-82
2022/07/21 09:00:25;;;;;;;2.90;1.50;;;;;;;20.86;88.28;101075.05;108061;1278;63866;-83
2022/07/21 09:03:10;;;;;;;4.40;1.60;;;;;;;21.00;88.21;101077.27;108040;1278;59877;-83
2022/07/21 09:05:37;;;;;;;3.40;1.60;;;;;;;21.18;87.82;101072.54;108128;1276;75872;-83
2022/07/21 09:08:04;;;;;;;3.20;1.90;;;;;;;21.36;87.17;101065.82;108007;1277;71550;-83
2022/07/21 09:10:32;;;;;;;3.10;1.60;;;;;;;21.58;86.20;101060.02;107924;1276;72999;-83
2022/07/21 09:13:06;;;;;;;2.50;1.50;;;;;;;21.76;84.36;101062.58;107972;1277;62283;-83
2022/07/21 09:15:34;;;;;;;2.00;1.30;;;;;;;21.94;82.90;101068.92;108127;1276;61950;-82
2022/07/21 09:18:07;;;;;;;1.60;1.10;;;;;;;22.02;80.37;101071.95;108093;1276;76832;-83
2022/07/21 09:20:39;;;;;;;2.00;1.20;;;;;;;22.12;79.66;101070.34;108222;1276;72486;-84
2022/07/21 09:23:11;;;;;;;1.90;1.20;;;;;;;22.25;78.88;101070.16;108055;1276;71687;-82
2022/07/21 09:25:55;;;;;;;2.80;1.40;;;;;;;22.43;78.25;101067.98;108079;1278;62301;-83
2022/07/21 09:28:26;;;;;;;3.00;1.90;;;;;;;22.54;75.70;101068.48;108044;1277;62314;-82
2022/07/21 09:30:54;;;;;;;1.70;1.30;;;;;;;22.56;75.68;101070.75;108199;1277;75838;-83
2022/07/21 09:33:33;;;;;;;2.80;1.60;;;;;;;22.45;74.85;101067.20;108098;1276;72136;-82
2022/07/21 09:36:12;;;;;;;3.50;1.70;;;;;;;22.33;75.46;101073.83;108251;1276;73341;-83
2022/07/21 09:38:44;;;;;;;2.70;2.00;;;;;;;22.24;75.45;101071.96;108155;1278;62863;-83
2022/07/21 09:41:14;;;;;;;2.90;2.20;;;;;;;22.13;75.81;101077.39;108239;1277;61643;-82
2022/07/21 09:43:44;;;;;;;3.00;2.60;;;;;;;22.00;75.28;101080.92;108286;1276;75738;-83
2022/07/21 09:46:23;;;;;;;4.80;3.80;;;;;;;21.95;75.86;101085.48;108014;1278;72737;-84
2022/07/21 09:48:52;;;;;;;6.80;5.20;;;;;;;21.88;76.09;101086.70;108187;1278;73805;-84
2022/07/21 09:51:41;;;;;;;5.20;4.40;;;;;;;21.77;76.45;101090.59;108162;1276;63718;-83
2022/07/21 09:54:10;;;;;;;5.70;4.90;;;;;;;21.68;76.99;101090.51;108179;1277;60594;-84
2022/07/21 09:56:40;;;;;;;6.90;6.20;;;;;;;21.62;76.71;101092.60;108176;1277;75850;-84
2022/07/21 09:59:09;;;;;;;6.30;5.70;;;;;;;21.64;77.09;101091.67;108176;1277;71124;-84
2022/07/21 10:01:37;;;;;;;6.90;6.20;;;;;;;21.70;76.85;101092.66;108181;1278;72370;-84
2022/07/21 10:04:06;;;;;;;7.00;6.30;;;;;;;21.81;77.27;101086.52;108110;1277;62218;-84
2022/07/21 10:06:36;;;;;;;7.40;6.60;;;;;;;21.98;76.79;101092.07;108227;1276;60372;-84
2022/07/21 10:09:05;;;;;;;7.20;6.50;;;;;;;22.18;75.67;101092.39;108210;1276;75790;-85
2022/07/21 10:11:33;;;;;;;7.10;6.40;;;;;;;22.37;74.47;101091.08;108102;1276;71651;-84
2022/07/21 10:14:01;;;;;;;6.90;6.20;;;;;;;22.53;73.43;101095.08;108104;1276;73469;-84
2022/07/21 10:16:28;;;;;;;7.30;6.60;;;;;;;22.68;72.25;101097.42;107841;1279;61996;-85
2022/07/21 10:19:53;;;;;;;7.00;6.00;;;;;;;22.81;71.04;101093.42;107899;1277;61882;-84
2022/07/21 10:22:25;;;;;;;7.50;5.80;;;;;;;23.18;70.23;101089.05;107482;1282;76834;-85
2022/07/21 10:24:52;;;;;;;7.20;5.70;;;;;;;23.53;69.13;101084.17;108122;1277;71879;-84
2022/07/21 10:27:19;;;;;;;8.10;6.10;;;;;;;23.87;67.95;101076.95;108033;1278;74166;-85
2022/07/21 10:30:00;;;;;;;8.30;6.20;;;;;;;24.16;66.39;101068.46;107993;1277;61317;-84
2022/07/21 10:32:33;;;;;;;6.30;5.70;;;;;;;24.35;64.50;101062.78;108058;1279;61083;-85
2022/07/21 10:35:30;;;;;;;7.30;6.50;;;;;;;24.56;63.90;101061.89;107866;1277;74929;-85
2022/07/21 10:37:58;;;;;;;7.20;6.50;;;;;;;24.90;63.00;101058.44;108092;1277;69521;-84
2022/07/21 10:40:25;;;;;;;6.50;5.90;;;;;;;25.28;61.99;101056.54;107971;1279;74573;-85
2022/07/21 10:42:58;;;;;;;6.50;5.80;;;;;;;25.55;59.13;101057.38;108112;1278;60918;-84
2022/07/21 10:45:31;;;;;;;7.10;6.40;;;;;;;25.71;59.06;101053.89;108075;1276;60662;-84
2022/07/21 10:47:59;;;;;;;7.00;6.30;;;;;;;25.93;59.22;101039.83;108114;1276;75931;-84
2022/07/21 10:50:33;;;;;;;8.20;6.90;;;;;;;26.31;58.31;101043.45;107953;1277;72023;-84
2022/07/21 10:53:08;;;;;;;6.80;6.10;;;;;;;26.63;56.70;101045.37;107957;1277;73134;-84
2022/07/21 10:55:45;;;;;;;7.20;5.90;;;;;;;26.92;57.18;101041.94;107887;1277;61569;-84
2022/07/21 10:58:16;;;;;;;6.70;5.40;;;;;;;27.28;55.05;101040.06;108130;1277;60580;-84
2022/07/21 11:00:54;;;;;;;5.70;5.20;;;;;;;27.52;53.82;101040.44;108158;1276;77385;-84
2022/07/21 11:03:26;;;;;;;6.00;5.50;;;;;;;27.54;51.28;101036.79;107767;1278;71962;-84
2022/07/21 11:06:06;;;;;;;5.90;5.20;;;;;;;27.43;52.09;101033.17;108065;1278;73001;-84
2022/07/21 11:08:35;;;;;;;5.00;4.50;;;;;;;27.41;52.17;101029.27;107968;1278;60859;-84
2022/07/21 11:11:26;;;;;;;6.50;5.80;;;;;;;27.35;50.60;101032.62;107982;1277;60662;-84
2022/07/21 11:14:08;;;;;;;5.70;4.90;;;;;;;27.52;51.51;101028.30;107910;1278;76088;-82
2022/07/21 11:19:35;;;;;;;5.10;4.60;;;;;;;27.58;48.77;101028.04;108077;1277;74817;-81
2022/07/21 11:22:05;;;;;;;5.50;4.70;;;;;;;27.44;49.66;101017.05;107864;1278;61897;-81
2022/07/21 11:24:33;;;;;;;5.60;5.10;;;;;;;27.44;49.78;101012.58;107982;1276;60889;-81
2022/07/21 11:27:05;;;;;;;5.60;5.10;;;;;;;27.50;49.07;101008.18;108025;1277;76968;-81
2022/07/21 11:29:52;;;;;;;5.80;4.80;;;;;;;27.38;48.54;101008.52;107889;1278;71920;-81
2022/07/21 11:32:23;;;;;;;5.60;4.40;;;;;;;27.32;48.46;101018.20;107518;1281;72748;-81